Time;durP1;ratioP1;P1;durP2;ratioP2;P2;SDS_P1;SDS_P2;PMS_P1;PMS_P2;Temp;Humidity;BMP_temperature;BMP_pressure;BME280_temperature;BME280_humidity;BME280_pressure;Samples;Min_cycle;Max_cycle;Signal;HPM_P1;HPM_P2
2021/11/02 00:01:09;;;;;;;3.13;2.17;;;;;;;;;;5100827;28;20236;-67
2021/11/02 00:03:37;;;;;;;4.43;2.13;;;;;;;;;;5100775;28;20285;-67
2021/11/02 00:06:07;;;;;;;3.57;2.40;;;;;;;;;;5100520;28;20692;-67
2021/11/02 00:08:35;;;;;;;2.97;2.07;;;;;;;;;;5100249;28;20312;-67
2021/11/02 00:11:03;;;;;;;6.57;2.27;;;;;;;;;;5100988;28;20265;-67
2021/11/02 00:13:37;;;;;;;3.20;2.23;;;;;;;;;;5100690;28;20213;-67
2021/11/02 00:16:09;;;;;;;5.67;2.10;;;;;;;;;;5082649;28;20202;-67
2021/11/02 00:18:40;;;;;;;5.13;1.90;;;;;;;;;;5100451;28;20225;-67
2021/11/02 00:21:10;;;;;;;3.27;1.90;;;;;;;;;;5100362;28;20224;-67
2021/11/02 00:23:38;;;;;;;3.47;2.00;;;;;;;;;;5100265;28;20205;-67
2021/11/02 00:26:07;;;;;;;5.47;2.03;;;;;;;;;;5100111;28;20313;-67
2021/11/02 00:28:35;;;;;;;2.53;1.50;;;;;;;;;;5094583;28;20675;-67
2021/11/02 00:31:03;;;;;;;3.07;1.70;;;;;;;;;;5080227;28;20210;-67
2021/11/02 00:33:32;;;;;;;1.53;1.27;;;;;;;;;;5079761;28;20229;-67
2021/11/02 00:36:00;;;;;;;2.23;1.60;;;;;;;;;;5079574;28;20665;-67
2021/11/02 00:38:30;;;;;;;2.53;1.80;;;;;;;;;;5083313;28;20317;-67
2021/11/02 00:40:58;;;;;;;4.20;1.87;;;;;;;;;;5100115;28;20209;-67
2021/11/02 00:43:26;;;;;;;2.73;1.70;;;;;;;;;;5093066;28;20294;-67
2021/11/02 00:45:54;;;;;;;3.07;1.63;;;;;;;;;;5079935;28;20233;-67
2021/11/02 00:48:26;;;;;;;5.97;1.97;;;;;;;;;;5079291;28;20234;-67
2021/11/02 00:50:54;;;;;;;1.77;1.50;;;;;;;;;;5079498;28;20285;-67
2021/11/02 00:53:23;;;;;;;3.27;1.63;;;;;;;;;;5079394;28;20212;-73
2021/11/02 00:55:52;;;;;;;8.77;2.03;;;;;;;;;;5082889;28;20201;-67
2021/11/02 00:58:21;;;;;;;3.97;1.43;;;;;;;;;;5099641;28;20225;-67
2021/11/02 01:00:49;;;;;;;2.03;1.53;;;;;;;;;;5099535;28;20550;-68
2021/11/02 01:03:17;;;;;;;3.63;1.60;;;;;;;;;;5100060;28;20274;-67
2021/11/02 01:05:46;;;;;;;2.70;1.73;;;;;;;;;;5100191;28;20225;-67
2021/11/02 01:08:14;;;;;;;3.43;1.40;;;;;;;;;;5099339;28;20608;-67
2021/11/02 01:10:47;;;;;;;2.90;1.27;;;;;;;;;;5099631;28;20201;-67
2021/11/02 01:13:16;;;;;;;7.50;1.47;;;;;;;;;;5099845;28;20293;-67
2021/11/02 01:15:44;;;;;;;5.87;1.67;;;;;;;;;;5099767;28;20205;-67
2021/11/02 01:18:12;;;;;;;5.17;2.00;;;;;;;;;;5099514;28;20231;-67
2021/11/02 01:20:40;;;;;;;4.20;1.40;;;;;;;;;;5099372;28;20643;-67
2021/11/02 01:23:08;;;;;;;2.00;1.37;;;;;;;;;;5099367;28;20201;-67
2021/11/02 01:25:36;;;;;;;1.60;1.23;;;;;;;;;;5099509;28;20232;-67
2021/11/02 01:28:05;;;;;;;3.03;1.37;;;;;;;;;;5097712;28;20716;-67
2021/11/02 01:30:34;;;;;;;1.40;1.30;;;;;;;;;;5079241;28;20233;-67
2021/11/02 01:33:02;;;;;;;4.37;1.23;;;;;;;;;;5078997;28;20202;-67
2021/11/02 01:35:30;;;;;;;2.37;1.30;;;;;;;;;;5078589;28;20313;-67
2021/11/02 01:37:59;;;;;;;2.07;1.27;;;;;;;;;;5078704;28;20298;-67
2021/11/02 01:40:27;;;;;;;5.00;1.30;;;;;;;;;;5098884;28;20210;-67
2021/11/02 01:42:55;;;;;;;1.93;1.57;;;;;;;;;;5081967;28;20323;-68
2021/11/02 01:45:27;;;;;;;5.17;1.50;;;;;;;;;;5077942;28;20226;-67
2021/11/02 01:47:57;;;;;;;1.37;1.20;;;;;;;;;;5078751;28;20289;-67
2021/11/02 01:50:25;;;;;;;1.67;1.43;;;;;;;;;;5078582;28;20206;-66
2021/11/02 01:52:53;;;;;;;1.53;1.33;;;;;;;;;;5078423;28;20210;-68
2021/11/02 01:55:21;;;;;;;1.90;1.30;;;;;;;;;;5078674;28;20210;-67
2021/11/02 01:57:49;;;;;;;1.60;0.90;;;;;;;;;;5097283;28;20641;-66
2021/11/02 02:00:18;;;;;;;3.50;1.10;;;;;;;;;;5098934;28;20297;-66
2021/11/02 02:02:49;;;;;;;3.10;1.53;;;;;;;;;;5098391;28;20294;-66
2021/11/02 02:05:25;;;;;;;1.23;1.13;;;;;;;;;;5098491;28;20300;-66
2021/11/02 02:08:00;;;;;;;4.53;1.43;;;;;;;;;;5098254;28;20628;-67
2021/11/02 02:10:32;;;;;;;2.83;1.30;;;;;;;;;;5098765;28;20295;-66
2021/11/02 02:13:06;;;;;;;1.00;0.90;;;;;;;;;;5098232;28;20205;-66
2021/11/02 02:15:39;;;;;;;3.40;1.23;;;;;;;;;;5097986;28;20284;-66
2021/11/02 02:18:10;;;;;;;3.33;0.97;;;;;;;;;;5098227;28;20221;-66
2021/11/02 02:20:52;;;;;;;2.60;1.30;;;;;;;;;;5098431;28;20209;-66
2021/11/02 02:23:25;;;;;;;3.30;1.30;;;;;;;;;;5097859;28;20300;-66
2021/11/02 02:25:56;;;;;;;3.13;1.10;;;;;;;;;;5098126;28;20218;-66
2021/11/02 02:28:26;;;;;;;3.00;1.20;;;;;;;;;;5094180;28;20228;-66
2021/11/02 02:30:56;;;;;;;1.30;1.10;;;;;;;;;;5077859;28;20572;-66
2021/11/02 02:33:27;;;;;;;2.77;1.40;;;;;;;;;;5077801;28;20292;-66
2021/11/02 02:35:56;;;;;;;1.73;1.23;;;;;;;;;;5077991;28;20206;-66
2021/11/02 02:38:25;;;;;;;1.80;1.20;;;;;;;;;;5080323;28;20759;-67
2021/11/02 02:40:54;;;;;;;2.40;1.13;;;;;;;;;;5097873;28;20202;-66
2021/11/02 02:43:22;;;;;;;2.60;1.10;;;;;;;;;;5077881;28;20292;-66
2021/11/02 02:45:53;;;;;;;4.87;1.40;;;;;;;;;;5077791;28;20232;-67
2021/11/02 02:48:22;;;;;;;2.33;1.30;;;;;;;;;;5077587;28;20593;-67
2021/11/02 02:50:52;;;;;;;2.57;1.27;;;;;;;;;;5077717;28;20293;-66
2021/11/02 02:53:21;;;;;;;2.73;1.33;;;;;;;;;;5077355;28;20209;-67
2021/11/02 02:55:49;;;;;;;1.83;1.30;;;;;;;;;;5080256;28;20285;-66
2021/11/02 02:58:17;;;;;;;3.13;1.50;;;;;;;;;;5097424;28;20778;-66
2021/11/02 03:00:47;;;;;;;1.20;1.10;;;;;;;;;;5097471;28;20720;-67
2021/11/02 03:03:18;;;;;;;2.50;1.40;;;;;;;;;;5097893;28;20205;-66
2021/11/02 03:05:46;;;;;;;3.10;1.30;;;;;;;;;;5097781;28;20232;-66
2021/11/02 03:08:14;;;;;;;3.80;1.57;;;;;;;;;;5097515;28;20316;-66
2021/11/02 03:10:44;;;;;;;1.93;1.33;;;;;;;;;;5097550;28;20209;-66
2021/11/02 03:13:14;;;;;;;3.10;1.47;;;;;;;;;;5097933;28;20215;-66
2021/11/02 03:15:55;;;;;;;4.23;1.50;;;;;;;;;;5098058;28;20232;-67
2021/11/02 03:18:41;;;;;;;1.50;1.40;;;;;;;;;;5097672;28;20229;-66
2021/11/02 03:43:45;;;;;;;2.23;1.60;;;;;;;;;;5097384;28;20212;-66
2021/11/02 03:49:06;;;;;;;2.50;2.00;;;;;;;;;;5097518;28;20985;-66
2021/11/02 03:54:35;;;;;;;3.47;1.93;;;;;;;;;;5075010;28;20233;-66
2021/11/02 03:57:11;;;;;;;5.73;1.70;;;;;;;;;;5090433;28;20201;-66
2021/11/02 05:12:51;;;;;;;2.10;1.10;;;;;;;;;;5066101;28;20616;-67
2021/11/02 05:48:53;;;;;;;1.23;1.13;;;;;;;;;;5078479;28;20234;-66
2021/11/02 05:56:54;;;;;;;1.03;1.03;;;;;;;;;;5078081;28;20205;-66
2021/11/02 05:59:31;;;;;;;1.63;1.30;;;;;;;;;;5098325;28;20308;-65
2021/11/02 06:02:11;;;;;;;1.33;1.23;;;;;;;;;;5098421;28;20271;-66
2021/11/02 06:04:59;;;;;;;1.30;1.20;;;;;;;;;;5097655;28;20197;-65
2021/11/02 06:10:57;;;;;;;2.30;1.27;;;;;;;;;;5071721;28;20288;-66
2021/11/02 06:27:54;;;;;;;3.00;1.37;;;;;;;;;;5085608;28;20227;-65
2021/11/02 06:30:27;;;;;;;2.40;1.30;;;;;;;;;;5086559;28;20198;-65
2021/11/02 06:33:04;;;;;;;1.70;1.27;;;;;;;;;;5089204;28;20288;-65
2021/11/02 06:35:36;;;;;;;3.53;1.20;;;;;;;;;;5087643;28;20568;-65
2021/11/02 06:49:46;;;;;;;1.33;1.23;;;;;;;;;;5084292;28;20221;-65
2021/11/02 06:55:22;;;;;;;3.40;1.20;;;;;;;;;;5090410;28;20265;-65
2021/11/02 06:58:15;;;;;;;2.87;1.30;;;;;;;;;;5091934;28;20194;-65
2021/11/02 07:10:49;;;;;;;1.40;1.13;;;;;;;;;;5088451;28;20201;-65
2021/11/02 07:17:53;;;;;;;3.40;1.70;;;;;;;;;;5087703;28;20533;-65
2021/11/02 07:20:32;;;;;;;1.30;1.20;;;;;;;;;;5089487;28;20252;-65
2021/11/02 07:23:14;;;;;;;2.47;1.47;;;;;;;;;;5090532;28;20284;-65
2021/11/02 07:25:50;;;;;;;2.27;1.50;;;;;;;;;;5086346;28;20712;-65
2021/11/02 07:28:41;;;;;;;1.93;1.70;;;;;;;;;;5089033;28;20237;-65
2021/11/02 08:47:05;;;;;;;3.17;0.70;;;;;;;;;;5091819;28;20205;-66
2021/11/02 08:49:36;;;;;;;3.10;0.80;;;;;;;;;;5093545;28;20268;-65
2021/11/02 08:52:05;;;;;;;2.97;0.70;;;;;;;;;;5079731;28;20210;-66
2021/11/02 08:54:36;;;;;;;2.10;0.70;;;;;;;;;;5079084;28;20246;-67
2021/11/02 08:57:04;;;;;;;8.33;2.10;;;;;;;;;;5092769;28;20205;-65
2021/11/02 08:59:33;;;;;;;3.83;0.77;;;;;;;;;;5085710;28;20309;-65
2021/11/02 09:02:04;;;;;;;3.23;0.73;;;;;;;;;;5079079;28;20690;-65
2021/11/02 09:04:33;;;;;;;2.33;0.83;;;;;;;;;;5079383;28;20207;-65
2021/11/02 09:07:03;;;;;;;3.70;0.80;;;;;;;;;;5079112;28;20265;-65
2021/11/02 09:09:40;;;;;;;3.10;0.90;;;;;;;;;;5079611;28;20230;-63
2021/11/02 09:12:08;;;;;;;6.33;1.13;;;;;;;;;;5088913;28;20237;-63
2021/11/02 09:14:38;;;;;;;2.97;0.90;;;;;;;;;;5079304;28;20289;-63
2021/11/02 09:17:06;;;;;;;1.10;0.50;;;;;;;;;;5078858;28;20293;-63
2021/11/02 09:19:36;;;;;;;2.93;0.77;;;;;;;;;;5078904;28;20657;-64
2021/11/02 09:22:05;;;;;;;1.83;1.20;;;;;;;;;;5078565;28;20206;-65
2021/11/02 09:24:35;;;;;;;2.17;0.60;;;;;;;;;;5094387;28;20233;-63
2021/11/02 09:27:05;;;;;;;1.40;0.53;;;;;;;;;;5098996;28;20622;-64
2021/11/02 09:29:35;;;;;;;4.70;0.67;;;;;;;;;;5085070;28;20277;-63
2021/11/02 09:32:05;;;;;;;0.40;0.40;;;;;;;;;;5078784;28;20728;-63
2021/11/02 09:34:33;;;;;;;2.53;0.73;;;;;;;;;;5078918;28;20210;-63
2021/11/02 09:37:07;;;;;;;1.90;0.73;;;;;;;;;;5078154;28;20289;-63
2021/11/02 09:39:40;;;;;;;1.00;0.60;;;;;;;;;;5091410;28;20660;-63
2021/11/02 09:42:16;;;;;;;3.13;0.70;;;;;;;;;;5086185;28;20213;-63
2021/11/02 09:45:13;;;;;;;3.33;1.00;;;;;;;;;;5086452;28;20292;-63
2021/11/02 09:48:11;;;;;;;4.00;1.03;;;;;;;;;;5088236;28;20307;-64
2021/11/02 09:50:52;;;;;;;3.50;1.00;;;;;;;;;;5088836;28;20644;-65
2021/11/02 09:53:39;;;;;;;1.67;0.70;;;;;;;;;;5091812;28;20205;-64
2021/11/02 09:56:13;;;;;;;4.37;0.80;;;;;;;;;;5090848;28;20200;-64
2021/11/02 09:58:57;;;;;;;7.47;1.23;;;;;;;;;;5094634;28;20285;-62
2021/11/02 10:01:33;;;;;;;2.27;1.20;;;;;;;;;;5093831;28;20715;-64
2021/11/02 10:04:26;;;;;;;3.60;0.67;;;;;;;;;;5091529;28;20197;-65
2021/11/02 10:07:15;;;;;;;2.20;0.83;;;;;;;;;;5090768;28;20236;-65
2021/11/02 10:09:50;;;;;;;4.17;0.90;;;;;;;;;;5094884;28;20225;-64
2021/11/02 10:12:19;;;;;;;0.53;0.53;;;;;;;;;;5091472;28;20595;-65
2021/11/02 10:15:05;;;;;;;1.23;0.77;;;;;;;;;;5093059;28;20292;-65
2021/11/02 10:18:04;;;;;;;5.30;1.17;;;;;;;;;;5090536;28;20194;-64
2021/11/02 10:20:44;;;;;;;2.83;0.90;;;;;;;;;;5071918;28;20212;-64
2021/11/02 10:23:19;;;;;;;7.27;1.20;;;;;;;;;;5097438;28;20292;-64
2021/11/02 10:26:05;;;;;;;2.67;0.77;;;;;;;;;;5097954;28;20211;-64
2021/11/02 10:28:54;;;;;;;0.40;0.40;;;;;;;;;;5092129;28;20317;-64
2021/11/02 10:31:28;;;;;;;3.33;0.50;;;;;;;;;;5077391;28;20285;-64
2021/11/02 10:34:00;;;;;;;5.60;0.60;;;;;;;;;;5085213;28;20208;-64
2021/11/02 10:36:34;;;;;;;2.20;0.80;;;;;;;;;;5097570;28;20212;-63
2021/11/02 10:39:16;;;;;;;2.10;0.70;;;;;;;;;;5089223;28;20226;-64
2021/11/02 10:41:50;;;;;;;4.07;0.73;;;;;;;;;;5077392;28;20214;-64
2021/11/02 10:44:21;;;;;;;4.00;0.70;;;;;;;;;;5077751;28;20202;-64
2021/11/02 10:46:57;;;;;;;2.37;0.70;;;;;;;;;;5077500;28;20214;-64
2021/11/02 10:49:29;;;;;;;2.20;0.80;;;;;;;;;;5077014;28;20239;-64
2021/11/02 10:52:02;;;;;;;1.83;0.70;;;;;;;;;;5076966;28;20220;-64
2021/11/02 10:54:48;;;;;;;4.93;0.73;;;;;;;;;;5077318;28;20214;-64
2021/11/02 10:57:25;;;;;;;5.33;1.30;;;;;;;;;;5085283;28;20632;-64
2021/11/02 10:59:57;;;;;;;1.90;0.77;;;;;;;;;;5088263;28;20657;-64
2021/11/02 11:02:26;;;;;;;4.33;0.63;;;;;;;;;;5086668;28;20225;-64
2021/11/02 11:04:58;;;;;;;3.27;0.87;;;;;;;;;;5087243;28;20297;-64
2021/11/02 11:07:27;;;;;;;3.30;0.70;;;;;;;;;;5090794;28;20701;-64
2021/11/02 11:09:55;;;;;;;1.33;0.60;;;;;;;;;;5087418;28;20221;-64
2021/11/02 11:12:23;;;;;;;3.43;0.70;;;;;;;;;;5086850;28;20276;-64
2021/11/02 11:14:54;;;;;;;2.97;0.70;;;;;;;;;;5088332;28;20216;-64
2021/11/02 11:17:27;;;;;;;1.17;1.07;;;;;;;;;;5086027;28;20626;-64
2021/11/02 11:20:03;;;;;;;1.33;1.30;;;;;;;;;;5092400;28;20214;-64
2021/11/02 11:22:35;;;;;;;0.93;0.60;;;;;;;;;;5092881;28;20201;-65
2021/11/02 11:25:05;;;;;;;2.07;0.83;;;;;;;;;;5090888;28;20199;-64
2021/11/02 11:27:35;;;;;;;1.17;0.90;;;;;;;;;;5091872;28;20201;-64
2021/11/02 11:30:05;;;;;;;2.63;0.60;;;;;;;;;;5093286;28;20217;-69
2021/11/02 11:32:35;;;;;;;5.10;1.43;;;;;;;;;;5091867;28;20265;-64
2021/11/02 11:35:05;;;;;;;0.77;0.67;;;;;;;;;;5087565;28;20204;-64
2021/11/02 11:37:38;;;;;;;1.60;0.60;;;;;;;;;;5093664;28;20206;-64
2021/11/02 11:40:06;;;;;;;2.50;0.80;;;;;;;;;;5096743;28;20198;-64
2021/11/02 11:42:35;;;;;;;2.87;1.73;;;;;;;;;;5098027;28;20194;-64
2021/11/02 11:45:06;;;;;;;2.90;0.70;;;;;;;;;;5095500;28;20205;-64
2021/11/02 11:47:34;;;;;;;1.57;0.70;;;;;;;;;;5100013;28;20215;-64
2021/11/02 11:50:28;;;;;;;2.73;0.67;;;;;;;;;;5094838;28;20226;-64
2021/11/02 11:53:00;;;;;;;1.10;0.80;;;;;;;;;;5096550;28;20256;-64
2021/11/02 11:55:30;;;;;;;1.60;0.90;;;;;;;;;;5098454;28;20266;-64
2021/11/02 11:58:02;;;;;;;1.40;1.30;;;;;;;;;;5097633;28;20312;-64
2021/11/02 12:00:30;;;;;;;0.50;0.50;;;;;;;;;;5097173;28;20699;-64
2021/11/02 12:03:00;;;;;;;0.80;0.80;;;;;;;;;;5097042;28;20221;-64
2021/11/02 12:05:30;;;;;;;1.13;0.50;;;;;;;;;;5099531;28;20709;-64
2021/11/02 12:08:07;;;;;;;5.63;1.63;;;;;;;;;;5080854;28;20226;-64
2021/11/02 12:10:36;;;;;;;1.00;0.90;;;;;;;;;;5094752;28;20300;-64
2021/11/02 12:13:05;;;;;;;2.73;0.90;;;;;;;;;;5095630;28;20664;-64
2021/11/02 12:15:46;;;;;;;0.73;0.70;;;;;;;;;;5096566;28;20545;-64
2021/11/02 12:18:19;;;;;;;3.37;0.63;;;;;;;;;;5097162;28;20245;-64
2021/11/02 12:20:50;;;;;;;1.23;0.87;;;;;;;;;;5094407;28;20645;-63
2021/11/02 12:23:25;;;;;;;4.17;1.20;;;;;;;;;;5096573;28;20280;-63
2021/11/02 12:25:54;;;;;;;3.07;1.10;;;;;;;;;;5095727;28;20205;-63
2021/11/02 12:28:28;;;;;;;3.60;1.40;;;;;;;;;;5097566;28;20657;-64
2021/11/02 12:30:58;;;;;;;1.67;0.87;;;;;;;;;;5089754;28;20265;-63
2021/11/02 12:33:27;;;;;;;2.10;1.20;;;;;;;;;;5080007;28;20221;-64
2021/11/02 12:35:58;;;;;;;1.37;0.93;;;;;;;;;;5090567;28;20298;-64
2021/11/02 12:38:30;;;;;;;0.90;0.90;;;;;;;;;;5097091;28;20224;-64
2021/11/02 12:40:58;;;;;;;1.80;1.33;;;;;;;;;;5095311;28;20251;-65
2021/11/02 12:43:27;;;;;;;2.77;1.10;;;;;;;;;;5091806;28;20292;-65
2021/11/02 12:45:56;;;;;;;14.10;1.50;;;;;;;;;;5099106;28;20198;-65
2021/11/02 12:48:25;;;;;;;1.40;1.13;;;;;;;;;;5092875;28;20214;-65
2021/11/02 12:51:27;;;;;;;3.57;1.27;;;;;;;;;;5078801;28;20720;-66
2021/11/02 12:53:59;;;;;;;2.03;1.13;;;;;;;;;;5079312;28;20202;-66
2021/11/02 12:56:28;;;;;;;2.73;0.93;;;;;;;;;;5087862;28;20233;-66
2021/11/02 12:59:02;;;;;;;1.00;0.90;;;;;;;;;;5085909;28;20290;-65
2021/11/02 13:01:35;;;;;;;2.40;0.83;;;;;;;;;;5093651;28;20728;-65
2021/11/02 13:04:04;;;;;;;3.23;0.90;;;;;;;;;;5099582;28;20239;-65
2021/11/02 13:06:40;;;;;;;2.40;0.90;;;;;;;;;;5099055;28;20225;-65
2021/11/02 13:09:08;;;;;;;0.77;0.67;;;;;;;;;;5099188;28;20256;-65
2021/11/02 13:11:37;;;;;;;1.20;0.73;;;;;;;;;;5087614;28;20257;-66
2021/11/02 13:14:11;;;;;;;1.10;0.97;;;;;;;;;;5079080;28;20207;-65
2021/11/02 13:16:56;;;;;;;3.37;1.37;;;;;;;;;;5082936;28;20380;-65
2021/11/02 13:19:26;;;;;;;1.17;0.80;;;;;;;;;;5093879;28;20232;-66
2021/11/02 13:21:55;;;;;;;1.80;0.70;;;;;;;;;;5098996;28;20201;-66
2021/11/02 13:24:26;;;;;;;1.93;0.80;;;;;;;;;;5099303;28;20209;-65
2021/11/02 13:26:57;;;;;;;2.00;0.77;;;;;;;;;;5095803;28;20261;-65
2021/11/02 13:29:26;;;;;;;1.77;1.00;;;;;;;;;;5092947;28;20281;-65
2021/11/02 13:31:54;;;;;;;1.37;1.10;;;;;;;;;;5093274;28;20281;-65
2021/11/02 13:34:33;;;;;;;4.13;1.20;;;;;;;;;;5097382;28;20277;-65
2021/11/02 13:37:04;;;;;;;2.37;1.20;;;;;;;;;;5094726;28;20194;-65
2021/11/02 13:39:49;;;;;;;1.10;0.80;;;;;;;;;;5096715;28;20296;-65
2021/11/02 13:42:18;;;;;;;2.00;1.20;;;;;;;;;;5095289;28;20225;-65
2021/11/02 13:44:49;;;;;;;1.37;1.20;;;;;;;;;;5095538;28;20239;-65
2021/11/02 13:47:18;;;;;;;1.73;1.10;;;;;;;;;;5094867;28;20219;-65
2021/11/02 13:49:47;;;;;;;3.07;1.13;;;;;;;;;;5092883;28;20292;-65
2021/11/02 13:52:16;;;;;;;5.20;1.40;;;;;;;;;;5093452;28;20240;-65
2021/11/02 13:54:44;;;;;;;3.27;0.93;;;;;;;;;;5092757;28;20284;-64
2021/11/02 13:57:12;;;;;;;2.60;1.17;;;;;;;;;;5091065;28;20284;-64
2021/11/02 13:59:41;;;;;;;5.27;1.00;;;;;;;;;;5093929;28;20312;-64
2021/11/02 14:02:09;;;;;;;3.43;0.93;;;;;;;;;;5091219;28;20309;-64
2021/11/02 14:04:39;;;;;;;0.70;0.50;;;;;;;;;;5093189;28;20668;-64
2021/11/02 14:07:09;;;;;;;0.87;0.80;;;;;;;;;;5094983;28;20269;-65
2021/11/02 14:09:40;;;;;;;0.60;0.60;;;;;;;;;;5097456;28;20670;-66
2021/11/02 14:12:25;;;;;;;0.50;0.50;;;;;;;;;;5085373;28;20232;-65
2021/11/02 14:14:53;;;;;;;0.50;0.50;;;;;;;;;;5085741;28;20718;-65
2021/11/02 14:17:22;;;;;;;1.00;1.00;;;;;;;;;;5098000;28;20284;-65
2021/11/02 14:19:55;;;;;;;1.63;0.93;;;;;;;;;;5098048;28;20261;-65
2021/11/02 14:22:38;;;;;;;1.30;0.80;;;;;;;;;;5093222;28;20736;-64
2021/11/02 14:25:12;;;;;;;0.60;0.60;;;;;;;;;;5077190;28;20206;-64
2021/11/02 14:27:41;;;;;;;1.00;0.77;;;;;;;;;;5077416;28;20210;-64
2021/11/02 14:30:09;;;;;;;1.13;0.73;;;;;;;;;;5094528;28;20284;-62
2021/11/02 14:32:51;;;;;;;1.63;1.10;;;;;;;;;;5077447;28;20317;-64
2021/11/02 14:35:38;;;;;;;1.40;0.80;;;;;;;;;;5077370;28;20292;-64
2021/11/02 14:38:08;;;;;;;1.93;0.97;;;;;;;;;;5078022;28;20589;-64
2021/11/02 14:40:38;;;;;;;1.07;0.77;;;;;;;;;;5090530;28;20217;-64
2021/11/02 14:43:33;;;;;;;1.40;0.77;;;;;;;;;;5077747;28;20212;-64
2021/11/02 14:46:03;;;;;;;1.10;0.70;;;;;;;;;;5053191;28;20212;-64
2021/11/02 14:48:37;;;;;;;2.93;0.70;;;;;;;;;;5077573;28;20226;-64
2021/11/02 14:51:06;;;;;;;2.03;0.60;;;;;;;;;;5077268;28;20229;-65
2021/11/02 14:53:35;;;;;;;1.13;0.90;;;;;;;;;;5084205;28;20212;-64
2021/11/02 14:56:07;;;;;;;4.30;0.70;;;;;;;;;;5097421;28;20601;-64
2021/11/02 14:58:49;;;;;;;0.70;0.70;;;;;;;;;;5097783;28;20225;-64
2021/11/02 15:01:19;;;;;;;1.40;0.97;;;;;;;;;;5097111;28;20261;-64
2021/11/02 15:03:51;;;;;;;1.77;1.23;;;;;;;;;;5097539;28;20205;-64
2021/11/02 15:06:19;;;;;;;0.73;0.73;;;;;;;;;;5097226;28;20296;-64
2021/11/02 15:08:47;;;;;;;1.57;1.20;;;;;;;;;;5096972;28;20253;-64
2021/11/02 15:11:18;;;;;;;2.47;1.00;;;;;;;;;;5097374;28;20260;-65
2021/11/02 15:13:47;;;;;;;2.03;1.00;;;;;;;;;;5097181;28;20323;-64
2021/11/02 15:16:15;;;;;;;1.43;1.00;;;;;;;;;;5097580;28;20704;-64
2021/11/02 15:18:44;;;;;;;1.37;0.80;;;;;;;;;;5097303;28;20230;-64
2021/11/02 15:21:16;;;;;;;2.00;1.33;;;;;;;;;;5096701;28;20599;-64
2021/11/02 15:23:46;;;;;;;1.43;1.13;;;;;;;;;;5097008;28;20292;-64
2021/11/02 15:26:43;;;;;;;1.40;0.70;;;;;;;;;;5097218;28;20209;-64
2021/11/02 15:29:12;;;;;;;2.50;1.00;;;;;;;;;;5086641;28;20253;-64
2021/11/02 15:31:40;;;;;;;1.63;1.27;;;;;;;;;;5077039;28;20240;-64
2021/11/02 15:34:12;;;;;;;1.57;1.17;;;;;;;;;;5076662;28;20210;-64
2021/11/02 15:36:41;;;;;;;2.17;1.57;;;;;;;;;;5076641;28;20214;-64
2021/11/02 15:39:09;;;;;;;3.27;1.30;;;;;;;;;;5085723;28;20247;-63
2021/11/02 15:41:38;;;;;;;1.53;0.87;;;;;;;;;;5084691;28;20202;-63
2021/11/02 15:44:08;;;;;;;2.20;1.10;;;;;;;;;;5089789;28;20679;-64
2021/11/02 15:46:37;;;;;;;1.50;1.10;;;;;;;;;;5088303;28;20202;-64
2021/11/02 15:49:06;;;;;;;1.67;1.47;;;;;;;;;;5087722;28;20222;-63
2021/11/02 15:51:35;;;;;;;1.43;1.30;;;;;;;;;;5085888;28;20260;-63
2021/11/02 15:54:10;;;;;;;1.20;1.10;;;;;;;;;;5087081;28;20281;-63
2021/11/02 15:56:38;;;;;;;1.73;1.30;;;;;;;;;;5087842;28;20200;-63
2021/11/02 15:59:08;;;;;;;1.93;1.13;;;;;;;;;;5088798;28;20218;-63
2021/11/02 16:01:36;;;;;;;4.17;1.20;;;;;;;;;;5084702;28;20870;-63
2021/11/02 16:04:12;;;;;;;2.73;1.50;;;;;;;;;;5086238;28;20541;-63
2021/11/02 16:07:10;;;;;;;2.73;1.30;;;;;;;;;;5090898;28;20212;-62
2021/11/02 16:09:46;;;;;;;3.30;1.27;;;;;;;;;;5045749;28;20343;-63
2021/11/02 16:12:15;;;;;;;1.93;1.67;;;;;;;;;;5084541;28;20224;-62
2021/11/02 16:14:55;;;;;;;3.07;1.60;;;;;;;;;;5089277;28;20209;-63
2021/11/02 16:17:24;;;;;;;2.53;1.20;;;;;;;;;;5090117;28;20281;-63
2021/11/02 16:19:53;;;;;;;1.87;1.60;;;;;;;;;;5090823;28;20308;-63
2021/11/02 16:22:21;;;;;;;3.83;1.37;;;;;;;;;;5093674;28;20200;-62
2021/11/02 16:25:01;;;;;;;5.83;1.27;;;;;;;;;;5090359;28;20293;-63
2021/11/02 16:27:29;;;;;;;2.87;2.03;;;;;;;;;;5089650;28;20604;-62
2021/11/02 16:29:58;;;;;;;1.10;0.80;;;;;;;;;;5091410;28;20298;-62
2021/11/02 16:32:27;;;;;;;1.23;1.13;;;;;;;;;;5092656;28;20255;-62
2021/11/02 16:34:56;;;;;;;1.10;1.10;;;;;;;;;;5088554;28;20227;-63
2021/11/02 16:37:31;;;;;;;2.20;1.50;;;;;;;;;;5088541;28;20285;-63
2021/11/02 16:40:18;;;;;;;3.43;2.47;;;;;;;;;;5091319;28;20217;-63
2021/11/02 16:43:01;;;;;;;2.40;1.30;;;;;;;;;;5088993;28;20559;-64
2021/11/02 16:45:35;;;;;;;1.77;1.33;;;;;;;;;;5091040;28;20266;-63
2021/11/02 16:48:04;;;;;;;2.13;1.30;;;;;;;;;;5088633;28;20358;-63
2021/11/02 16:50:34;;;;;;;4.97;2.43;;;;;;;;;;5088738;28;20212;-63
2021/11/02 16:53:12;;;;;;;4.53;2.17;;;;;;;;;;5093234;28;20662;-63
2021/11/02 16:55:41;;;;;;;3.23;1.20;;;;;;;;;;5091073;28;20347;-63
2021/11/02 16:58:28;;;;;;;3.67;1.67;;;;;;;;;;5087421;28;20301;-63
2021/11/02 17:01:17;;;;;;;5.47;3.00;;;;;;;;;;5089750;28;20268;-63
2021/11/02 17:03:46;;;;;;;4.00;1.83;;;;;;;;;;5114566;28;20769;-63
2021/11/02 17:06:15;;;;;;;1.90;1.60;;;;;;;;;;5113916;28;20284;-64
2021/11/02 17:08:51;;;;;;;4.67;2.60;;;;;;;;;;5116120;28;20227;-63
2021/11/02 17:11:20;;;;;;;3.20;2.10;;;;;;;;;;5110061;28;20625;-63
2021/11/02 17:13:48;;;;;;;4.13;1.87;;;;;;;;;;5098950;28;20264;-63
2021/11/02 17:16:21;;;;;;;2.40;1.87;;;;;;;;;;5090778;28;20633;-63
2021/11/02 17:18:52;;;;;;;2.67;1.13;;;;;;;;;;5110685;28;20223;-64
2021/11/02 17:21:22;;;;;;;2.83;1.13;;;;;;;;;;5117871;28;20634;-63
2021/11/02 17:23:50;;;;;;;2.10;0.93;;;;;;;;;;5101834;28;20219;-63
2021/11/02 17:26:19;;;;;;;3.67;1.60;;;;;;;;;;5098725;28;20292;-64
2021/11/02 17:28:49;;;;;;;2.27;1.57;;;;;;;;;;5080714;28;20226;-63
2021/11/02 17:31:20;;;;;;;1.37;1.27;;;;;;;;;;5078844;28;20217;-63
2021/11/02 17:33:48;;;;;;;2.90;1.40;;;;;;;;;;5078568;28;20257;-63
2021/11/02 17:36:17;;;;;;;5.43;1.67;;;;;;;;;;5096219;28;20285;-63
2021/11/02 17:38:47;;;;;;;1.50;1.40;;;;;;;;;;5092707;28;20381;-64
2021/11/02 17:41:15;;;;;;;2.10;1.43;;;;;;;;;;5078602;28;20233;-64
2021/11/02 17:43:45;;;;;;;2.97;1.20;;;;;;;;;;5078756;28;20213;-63
2021/11/02 17:46:13;;;;;;;1.87;1.30;;;;;;;;;;5078410;28;20752;-64
2021/11/02 17:48:43;;;;;;;1.97;1.40;;;;;;;;;;5078492;28;20228;-64
2021/11/02 17:51:11;;;;;;;3.80;1.43;;;;;;;;;;5078195;28;20210;-64
2021/11/02 17:53:41;;;;;;;2.47;1.47;;;;;;;;;;5078110;28;20252;-64
2021/11/02 17:56:11;;;;;;;3.87;1.30;;;;;;;;;;5085365;28;20198;-63
2021/11/02 17:58:39;;;;;;;2.63;2.00;;;;;;;;;;5097304;28;20225;-64
2021/11/02 18:01:09;;;;;;;4.80;1.23;;;;;;;;;;5077961;28;20241;-63
2021/11/02 18:03:38;;;;;;;4.97;1.83;;;;;;;;;;5078174;28;20229;-64
2021/11/02 18:06:09;;;;;;;2.27;1.23;;;;;;;;;;5078092;28;20206;-64
2021/11/02 18:08:37;;;;;;;1.30;0.90;;;;;;;;;;5078040;28;20313;-64
2021/11/02 18:11:06;;;;;;;3.33;1.13;;;;;;;;;;5081712;28;20281;-64
2021/11/02 18:13:34;;;;;;;2.60;0.97;;;;;;;;;;5077945;28;20314;-64
2021/11/02 18:16:03;;;;;;;0.87;0.87;;;;;;;;;;5086104;28;20284;-63
2021/11/02 18:18:37;;;;;;;1.63;1.00;;;;;;;;;;5097943;28;20838;-64
2021/11/02 18:21:06;;;;;;;3.40;0.93;;;;;;;;;;5097822;28;20706;-63
2021/11/02 18:23:37;;;;;;;0.93;0.90;;;;;;;;;;5098064;28;20269;-64
2021/11/02 18:26:05;;;;;;;5.20;3.07;;;;;;;;;;5092932;28;20212;-63
2021/11/02 18:28:34;;;;;;;6.10;3.17;;;;;;;;;;5084095;28;20214;-63
2021/11/02 18:31:02;;;;;;;3.97;2.10;;;;;;;;;;5083422;28;20208;-63
2021/11/02 18:33:31;;;;;;;1.33;1.23;;;;;;;;;;5097941;28;20243;-64
2021/11/02 18:35:59;;;;;;;2.97;0.90;;;;;;;;;;5097709;28;20243;-63
2021/11/02 18:38:27;;;;;;;2.23;1.00;;;;;;;;;;5086618;28;20721;-63
2021/11/02 18:40:57;;;;;;;1.10;0.90;;;;;;;;;;5090498;28;20206;-63
2021/11/02 18:43:26;;;;;;;2.13;1.03;;;;;;;;;;5077991;28;20266;-63
2021/11/02 18:45:55;;;;;;;1.97;0.80;;;;;;;;;;5077923;28;20208;-63
2021/11/02 18:48:24;;;;;;;2.67;1.20;;;;;;;;;;5077855;28;20234;-63
2021/11/02 18:50:52;;;;;;;1.53;0.93;;;;;;;;;;5077602;28;20213;-65
2021/11/02 18:53:21;;;;;;;3.60;1.30;;;;;;;;;;5077583;28;20313;-64
2021/11/02 18:55:50;;;;;;;1.63;1.07;;;;;;;;;;5082811;28;20279;-65
2021/11/02 18:58:20;;;;;;;1.60;1.07;;;;;;;;;;5090852;28;20308;-64
2021/11/02 19:00:48;;;;;;;0.97;0.90;;;;;;;;;;5090111;28;20281;-64
2021/11/02 19:03:16;;;;;;;1.27;1.17;;;;;;;;;;5088811;28;20205;-65
2021/11/02 19:05:44;;;;;;;2.93;1.40;;;;;;;;;;5088623;28;20237;-65
2021/11/02 19:08:13;;;;;;;2.57;1.30;;;;;;;;;;5087381;28;20223;-64
2021/11/02 19:10:42;;;;;;;5.10;1.10;;;;;;;;;;5092712;28;20201;-64
2021/11/02 19:13:10;;;;;;;0.97;0.93;;;;;;;;;;5090948;28;20281;-64
2021/11/02 19:15:40;;;;;;;2.77;1.27;;;;;;;;;;5095786;28;20201;-64
2021/11/02 19:18:10;;;;;;;2.13;1.50;;;;;;;;;;5091875;28;20335;-64
2021/11/02 19:20:39;;;;;;;2.03;1.30;;;;;;;;;;5094221;28;20201;-64
2021/11/02 19:23:08;;;;;;;3.00;1.60;;;;;;;;;;5093298;28;20201;-64
2021/11/02 19:25:37;;;;;;;2.43;1.27;;;;;;;;;;5091735;28;20202;-64
2021/11/02 19:28:12;;;;;;;1.93;1.60;;;;;;;;;;5093381;28;20231;-64
2021/11/02 19:30:55;;;;;;;1.80;1.40;;;;;;;;;;5094347;28;20232;-64
2021/11/02 19:33:27;;;;;;;1.20;1.00;;;;;;;;;;5091573;28;20632;-64
2021/11/02 19:35:56;;;;;;;3.43;1.30;;;;;;;;;;5087713;28;20198;-64